Silver Cliff, Wisconsin
Current Conditions -  °F | °C
As of 12:54 PM on Friday 24 Oct 2014 (Local Time) from KIMT Reporting Station
Scattered Clouds Scattered Clouds  
Wind Chill: 52°   Ceiling: Unl
Heat Index: 52°   Visibility: 10mi
Dew Point: 47°   Wind: 6mph
Humidity: 83%   Direction: 140°SE
Pressure: 29.91"   Gusts: NA
Location:  45.4596°N, 88.2404°W
Report Text: KIMT 241754Z AUTO 14005KT 10SM SCT006 11/08 A2991 RMK AO2 SLP137 T01110083 10111 20061 58021
Loading
Personal Weather Stations






























Interactive Weather Map
Tropical Storm Tracking
New forecast layout! Learn more

10-Day Weather Forecast

Advertisements
Track Severe Weather on mobile